sensor_id;sensor_type;location;lat;lon;timestamp;pressure;altitude;pressure_sealevel;temperature;humidity
64753;BME280;61095;52.454;16.948;2023-07-20T06:01:43;99914.09;;;27.47;47.00
64753;BME280;61095;52.454;16.948;2023-07-20T06:06:43;99920.78;;;28.16;45.92
64753;BME280;61095;52.454;16.948;2023-07-20T06:11:44;99919.97;;;28.86;45.21
64753;BME280;61095;52.454;16.948;2023-07-20T06:16:45;99921.25;;;29.29;43.79
64753;BME280;61095;52.454;16.948;2023-07-20T06:21:46;99924.88;;;29.67;42.44
64753;BME280;61095;52.454;16.948;2023-07-20T06:26:46;99919.88;;;30.08;40.74
64753;BME280;61095;52.454;16.948;2023-07-20T06:31:48;99931.50;;;30.46;40.07
64753;BME280;61095;52.454;16.948;2023-07-20T06:36:48;99932.88;;;30.86;38.78
64753;BME280;61095;52.454;16.948;2023-07-20T06:41:48;99932.16;;;31.14;37.53
64753;BME280;61095;52.454;16.948;2023-07-20T06:46:50;99931.91;;;31.30;36.10
64753;BME280;61095;52.454;16.948;2023-07-20T06:51:50;99931.94;;;31.37;35.90
64753;BME280;61095;52.454;16.948;2023-07-20T06:56:51;99924.50;;;31.67;35.10
64753;BME280;61095;52.454;16.948;2023-07-20T07:01:52;99931.09;;;31.79;34.37
64753;BME280;61095;52.454;16.948;2023-07-20T07:06:53;99943.84;;;32.00;34.50
64753;BME280;61095;52.454;16.948;2023-07-20T07:11:53;99942.56;;;31.96;33.80
64753;BME280;61095;52.454;16.948;2023-07-20T07:16:55;99942.59;;;31.74;34.19
64753;BME280;61095;52.454;16.948;2023-07-20T07:21:55;99946.19;;;31.54;33.82
64753;BME280;61095;52.454;16.948;2023-07-20T07:26:55;99952.22;;;31.28;33.35
64753;BME280;61095;52.454;16.948;2023-07-20T07:31:57;99949.78;;;30.97;33.59
64753;BME280;61095;52.454;16.948;2023-07-20T07:36:57;99952.56;;;30.67;33.37
64753;BME280;61095;52.454;16.948;2023-07-20T07:41:58;99951.69;;;30.37;33.79
64753;BME280;61095;52.454;16.948;2023-07-20T07:47:00;99953.03;;;30.12;33.71
64753;BME280;61095;52.454;16.948;2023-07-20T07:52:00;99946.00;;;29.94;33.95
64753;BME280;61095;52.454;16.948;2023-07-20T07:57:00;99955.91;;;29.73;34.74
64753;BME280;61095;52.454;16.948;2023-07-20T08:02:04;99948.53;;;29.81;34.82
64753;BME280;61095;52.454;16.948;2023-07-20T08:07:05;99943.16;;;30.11;34.29
64753;BME280;61095;52.454;16.948;2023-07-20T08:12:06;99944.75;;;30.35;34.13
64753;BME280;61095;52.454;16.948;2023-07-20T08:17:08;99954.13;;;30.32;33.94
64753;BME280;61095;52.454;16.948;2023-07-20T08:22:08;99937.81;;;30.17;33.84
64753;BME280;61095;52.454;16.948;2023-07-20T08:27:09;99945.03;;;30.25;34.34
64753;BME280;61095;52.454;16.948;2023-07-20T08:32:11;99952.91;;;30.20;33.92
64753;BME280;61095;52.454;16.948;2023-07-20T08:37:11;99954.81;;;29.97;34.02
64753;BME280;61095;52.454;16.948;2023-07-20T08:42:12;99959.63;;;29.57;35.00
64753;BME280;61095;52.454;16.948;2023-07-20T08:47:16;99964.31;;;29.17;35.53
64753;BME280;61095;52.454;16.948;2023-07-20T08:52:16;99968.38;;;28.90;35.87
64753;BME280;61095;52.454;16.948;2023-07-20T08:57:17;99981.56;;;28.62;36.62
64753;BME280;61095;52.454;16.948;2023-07-20T09:02:22;99988.25;;;28.27;37.77
64753;BME280;61095;52.454;16.948;2023-07-20T09:07:25;99994.56;;;27.95;39.12
64753;BME280;61095;52.454;16.948;2023-07-20T09:12:25;99995.94;;;27.67;40.09
64753;BME280;61095;52.454;16.948;2023-07-20T09:17:27;100015.19;;;27.39;40.79
64753;BME280;61095;52.454;16.948;2023-07-20T09:22:29;100036.22;;;26.95;41.81
64753;BME280;61095;52.454;16.948;2023-07-20T09:27:35;100025.81;;;26.48;43.19
64753;BME280;61095;52.454;16.948;2023-07-20T09:32:40;100024.00;;;26.05;44.80
64753;BME280;61095;52.454;16.948;2023-07-20T09:37:41;100013.63;;;25.75;45.12
64753;BME280;61095;52.454;16.948;2023-07-20T09:42:45;100023.63;;;25.65;45.88
64753;BME280;61095;52.454;16.948;2023-07-20T09:47:47;100012.34;;;25.69;46.03
64753;BME280;61095;52.454;16.948;2023-07-20T09:52:48;100013.00;;;25.81;45.64
64753;BME280;61095;52.454;16.948;2023-07-20T09:57:48;100016.53;;;25.99;45.16
64753;BME280;61095;52.454;16.948;2023-07-20T10:02:52;100018.66;;;26.13;44.63
64753;BME280;61095;52.454;16.948;2023-07-20T10:07:55;100015.06;;;26.31;44.86
64753;BME280;61095;52.454;16.948;2023-07-20T10:12:57;100007.72;;;26.49;45.30
64753;BME280;61095;52.454;16.948;2023-07-20T10:18:03;100006.09;;;26.56;45.40
64753;BME280;61095;52.454;16.948;2023-07-20T10:23:06;100003.81;;;26.69;45.19
64753;BME280;61095;52.454;16.948;2023-07-20T10:28:07;100010.09;;;26.78;45.15
64753;BME280;61095;52.454;16.948;2023-07-20T10:33:09;99995.56;;;26.87;44.86
64753;BME280;61095;52.454;16.948;2023-07-20T10:38:10;99998.66;;;27.00;44.14
64753;BME280;61095;52.454;16.948;2023-07-20T10:43:10;100002.03;;;27.02;43.83
64753;BME280;61095;52.454;16.948;2023-07-20T10:48:16;99992.56;;;27.06;43.11
64753;BME280;61095;52.454;16.948;2023-07-20T10:53:18;99975.91;;;27.19;42.71
64753;BME280;61095;52.454;16.948;2023-07-20T10:58:18;99981.81;;;27.23;42.07
64753;BME280;61095;52.454;16.948;2023-07-20T11:03:31;99965.22;;;27.26;41.84
64753;BME280;61095;52.454;16.948;2023-07-20T11:08:39;99968.78;;;27.34;41.25
64753;BME280;61095;52.454;16.948;2023-07-20T11:13:53;99963.88;;;27.46;41.09
64753;BME280;61095;52.454;16.948;2023-07-20T11:18:55;99946.44;;;27.57;40.81
64753;BME280;61095;52.454;16.948;2023-07-20T11:23:56;99955.25;;;27.67;40.43
64753;BME280;61095;52.454;16.948;2023-07-20T11:28:58;99944.09;;;27.78;40.05
64753;BME280;61095;52.454;16.948;2023-07-20T11:33:59;99947.31;;;27.82;39.31
64753;BME280;61095;52.454;16.948;2023-07-20T11:39:00;99940.88;;;27.74;38.93
64753;BME280;61095;52.454;16.948;2023-07-20T11:44:00;99950.16;;;27.72;38.29
64753;BME280;61095;52.454;16.948;2023-07-20T11:49:02;99951.56;;;27.76;37.69
64753;BME280;61095;52.454;16.948;2023-07-20T11:54:03;99966.13;;;27.75;37.36
64753;BME280;61095;52.454;16.948;2023-07-20T11:59:04;99953.91;;;27.71;36.91
64753;BME280;61095;52.454;16.948;2023-07-20T12:04:09;99955.59;;;27.72;36.78
64753;BME280;61095;52.454;16.948;2023-07-20T12:09:13;99951.88;;;27.89;36.61
64753;BME280;61095;52.454;16.948;2023-07-20T12:14:14;99958.28;;;28.04;35.83
64753;BME280;61095;52.454;16.948;2023-07-20T12:19:16;99951.81;;;28.05;36.16
64753;BME280;61095;52.454;16.948;2023-07-20T12:24:18;99943.03;;;28.12;35.95
64753;BME280;61095;52.454;16.948;2023-07-20T12:29:18;99942.31;;;28.18;35.85
64753;BME280;61095;52.454;16.948;2023-07-20T12:34:20;99927.06;;;28.17;35.74
64753;BME280;61095;52.454;16.948;2023-07-20T12:39:20;99924.00;;;28.20;35.46
64753;BME280;61095;52.454;16.948;2023-07-20T12:44:20;99925.50;;;28.22;35.24
64753;BME280;61095;52.454;16.948;2023-07-20T12:49:22;99946.16;;;28.40;34.97
64753;BME280;61095;52.454;16.948;2023-07-20T12:54:22;99962.38;;;28.56;34.50
64753;BME280;61095;52.454;16.948;2023-07-20T12:59:23;99956.63;;;28.51;33.97
64753;BME280;61095;52.454;16.948;2023-07-20T13:04:24;99963.44;;;28.47;33.67
64753;BME280;61095;52.454;16.948;2023-07-20T13:09:25;99967.06;;;28.23;33.72
64753;BME280;61095;52.454;16.948;2023-07-20T13:14:26;99973.00;;;28.18;33.85
64753;BME280;61095;52.454;16.948;2023-07-20T13:19:30;99966.25;;;28.14;33.71
64753;BME280;61095;52.454;16.948;2023-07-20T13:24:30;99967.75;;;28.08;33.99
64753;BME280;61095;52.454;16.948;2023-07-20T13:29:31;99982.50;;;28.06;34.22
64753;BME280;61095;52.454;16.948;2023-07-20T13:34:32;99976.63;;;27.78;34.59
64753;BME280;61095;52.454;16.948;2023-07-20T13:39:33;99957.63;;;27.70;34.86
64753;BME280;61095;52.454;16.948;2023-07-20T13:44:33;99962.19;;;27.53;35.22
64753;BME280;61095;52.454;16.948;2023-07-20T13:49:35;99963.03;;;27.37;35.67
64753;BME280;61095;52.454;16.948;2023-07-20T13:54:35;99974.72;;;27.46;35.46
64753;BME280;61095;52.454;16.948;2023-07-20T13:59:36;99972.84;;;27.47;35.57
64753;BME280;61095;52.454;16.948;2023-07-20T14:04:37;99961.34;;;27.53;35.63
64753;BME280;61095;52.454;16.948;2023-07-20T14:09:38;99961.69;;;27.58;35.42
64753;BME280;61095;52.454;16.948;2023-07-20T14:14:39;99962.34;;;27.60;35.52
64753;BME280;61095;52.454;16.948;2023-07-20T14:19:40;99960.31;;;27.62;35.86
64753;BME280;61095;52.454;16.948;2023-07-20T14:24:41;99966.28;;;27.65;36.00
64753;BME280;61095;52.454;16.948;2023-07-20T14:29:41;99996.41;;;27.54;36.04
64753;BME280;61095;52.454;16.948;2023-07-20T14:34:43;99992.00;;;27.45;36.46
64753;BME280;61095;52.454;16.948;2023-07-20T14:39:43;99996.06;;;27.41;36.78
64753;BME280;61095;52.454;16.948;2023-07-20T14:44:44;100002.84;;;27.45;37.19
64753;BME280;61095;52.454;16.948;2023-07-20T14:49:45;100008.44;;;27.43;37.54
64753;BME280;61095;52.454;16.948;2023-07-20T14:54:46;100013.13;;;27.17;37.74
64753;BME280;61095;52.454;16.948;2023-07-20T14:59:46;100009.78;;;26.89;37.55
64753;BME280;61095;52.454;16.948;2023-07-20T15:04:48;100012.50;;;26.89;37.17
64753;BME280;61095;52.454;16.948;2023-07-20T15:09:49;100010.47;;;26.91;37.23
64753;BME280;61095;52.454;16.948;2023-07-20T15:15:02;100005.53;;;26.78;36.72
64753;BME280;61095;52.454;16.948;2023-07-20T15:20:06;100002.13;;;26.76;36.74
64753;BME280;61095;52.454;16.948;2023-07-20T15:25:08;100006.66;;;26.68;36.74
64753;BME280;61095;52.454;16.948;2023-07-20T15:30:09;100004.22;;;26.57;36.60
64753;BME280;61095;52.454;16.948;2023-07-20T15:35:11;100014.63;;;26.43;36.57
64753;BME280;61095;52.454;16.948;2023-07-20T15:40:12;100010.25;;;26.50;36.85
64753;BME280;61095;52.454;16.948;2023-07-20T15:45:12;100005.69;;;26.51;37.28
64753;BME280;61095;52.454;16.948;2023-07-20T15:50:14;100006.88;;;26.48;37.41
64753;BME280;61095;52.454;16.948;2023-07-20T15:55:15;100010.41;;;26.49;37.42
64753;BME280;61095;52.454;16.948;2023-07-20T16:00:16;100017.84;;;26.47;37.51
64753;BME280;61095;52.454;16.948;2023-07-20T16:05:18;100006.34;;;26.45;37.78
64753;BME280;61095;52.454;16.948;2023-07-20T16:10:18;100019.88;;;26.45;37.94
64753;BME280;61095;52.454;16.948;2023-07-20T16:15:19;100012.59;;;26.45;38.42
64753;BME280;61095;52.454;16.948;2023-07-20T16:20:20;100011.75;;;26.45;38.96
64753;BME280;61095;52.454;16.948;2023-07-20T16:25:21;100018.81;;;26.38;39.25
64753;BME280;61095;52.454;16.948;2023-07-20T16:30:21;100017.44;;;26.34;39.25
64753;BME280;61095;52.454;16.948;2023-07-20T16:35:23;100013.22;;;26.31;39.49
64753;BME280;61095;52.454;16.948;2023-07-20T16:40:23;100022.66;;;26.27;39.38
64753;BME280;61095;52.454;16.948;2023-07-20T16:45:24;100019.63;;;26.30;39.57
64753;BME280;61095;52.454;16.948;2023-07-20T16:50:26;100007.47;;;26.34;39.42
64753;BME280;61095;52.454;16.948;2023-07-20T16:55:26;100006.31;;;26.37;39.57
64753;BME280;61095;52.454;16.948;2023-07-20T17:00:27;100006.66;;;26.42;39.22
64753;BME280;61095;52.454;16.948;2023-07-20T17:05:29;100006.03;;;26.48;39.29
64753;BME280;61095;52.454;16.948;2023-07-20T17:10:29;99997.56;;;26.51;39.46
64753;BME280;61095;52.454;16.948;2023-07-20T17:15:31;99997.75;;;26.49;39.40
64753;BME280;61095;52.454;16.948;2023-07-20T17:20:33;99996.28;;;26.55;39.50
64753;BME280;61095;52.454;16.948;2023-07-20T17:25:33;100005.59;;;26.61;39.56
64753;BME280;61095;52.454;16.948;2023-07-20T17:30:33;100010.84;;;26.62;39.24
64753;BME280;61095;52.454;16.948;2023-07-20T17:35:35;100005.75;;;26.59;38.88
64753;BME280;61095;52.454;16.948;2023-07-20T17:40:36;100005.06;;;26.57;38.97
64753;BME280;61095;52.454;16.948;2023-07-20T17:45:36;100003.41;;;26.64;38.88
64753;BME280;61095;52.454;16.948;2023-07-20T17:50:38;100004.16;;;26.74;38.51
64753;BME280;61095;52.454;16.948;2023-07-20T17:55:38;100012.81;;;26.86;38.49
64753;BME280;61095;52.454;16.948;2023-07-20T18:00:38;100019.41;;;26.83;38.37
64753;BME280;61095;52.454;16.948;2023-07-20T18:05:40;100019.78;;;26.89;37.97
64753;BME280;61095;52.454;16.948;2023-07-20T18:10:40;100018.59;;;26.91;37.57
64753;BME280;61095;52.454;16.948;2023-07-20T18:15:41;100026.38;;;26.86;37.45
64753;BME280;61095;52.454;16.948;2023-07-20T18:20:42;100027.06;;;26.88;37.50
64753;BME280;61095;52.454;16.948;2023-07-20T18:25:43;100030.44;;;26.90;37.35
64753;BME280;61095;52.454;16.948;2023-07-20T18:30:43;100033.16;;;26.90;37.18
64753;BME280;61095;52.454;16.948;2023-07-20T18:35:45;100035.00;;;26.90;37.30
64753;BME280;61095;52.454;16.948;2023-07-20T18:40:46;100027.91;;;26.89;37.48
64753;BME280;61095;52.454;16.948;2023-07-20T18:45:46;100036.53;;;26.92;37.59
64753;BME280;61095;52.454;16.948;2023-07-20T18:50:48;100032.97;;;26.92;37.63
64753;BME280;61095;52.454;16.948;2023-07-20T18:55:48;100038.41;;;26.92;37.40
64753;BME280;61095;52.454;16.948;2023-07-20T19:00:49;100037.53;;;26.83;37.04
64753;BME280;61095;52.454;16.948;2023-07-20T19:05:50;100048.16;;;26.76;37.28
64753;BME280;61095;52.454;16.948;2023-07-20T19:10:51;100049.81;;;26.69;37.21
64753;BME280;61095;52.454;16.948;2023-07-20T19:15:51;100058.19;;;26.58;36.68
64753;BME280;61095;52.454;16.948;2023-07-20T19:20:53;100066.78;;;26.28;36.97
64753;BME280;61095;52.454;16.948;2023-07-20T19:25:53;100070.75;;;25.98;37.30
64753;BME280;61095;52.454;16.948;2023-07-20T19:30:54;100083.16;;;25.73;37.60
64753;BME280;61095;52.454;16.948;2023-07-20T19:35:56;100080.38;;;25.47;37.82
64753;BME280;61095;52.454;16.948;2023-07-20T19:40:57;100086.00;;;25.26;38.14
64753;BME280;61095;52.454;16.948;2023-07-20T19:45:57;100084.97;;;25.09;38.35
64753;BME280;61095;52.454;16.948;2023-07-20T19:50:59;100081.09;;;24.94;38.70
64753;BME280;61095;52.454;16.948;2023-07-20T19:56:00;100094.78;;;24.83;38.77
64753;BME280;61095;52.454;16.948;2023-07-20T20:01:01;100093.25;;;24.71;38.97
64753;BME280;61095;52.454;16.948;2023-07-20T20:06:03;100094.69;;;24.55;38.95
64753;BME280;61095;52.454;16.948;2023-07-20T20:11:04;100093.03;;;24.45;39.37
64753;BME280;61095;52.454;16.948;2023-07-20T20:16:05;100098.72;;;24.32;39.14
64753;BME280;61095;52.454;16.948;2023-07-20T20:21:07;100104.97;;;24.23;39.66
64753;BME280;61095;52.454;16.948;2023-07-20T20:26:07;100095.19;;;24.12;39.83
64753;BME280;61095;52.454;16.948;2023-07-20T20:31:07;100096.06;;;24.03;39.71
64753;BME280;61095;52.454;16.948;2023-07-20T20:36:09;100103.28;;;23.93;40.24
64753;BME280;61095;52.454;16.948;2023-07-20T20:41:09;100093.31;;;23.84;40.20
64753;BME280;61095;52.454;16.948;2023-07-20T20:46:10;100100.41;;;23.75;40.42
64753;BME280;61095;52.454;16.948;2023-07-20T20:51:12;100106.50;;;23.67;40.47
64753;BME280;61095;52.454;16.948;2023-07-20T20:56:12;100109.19;;;23.58;40.60
64753;BME280;61095;52.454;16.948;2023-07-20T21:01:13;100111.75;;;23.50;40.68
64753;BME280;61095;52.454;16.948;2023-07-20T21:06:15;100118.69;;;23.43;40.56
64753;BME280;61095;52.454;16.948;2023-07-20T21:11:16;100116.78;;;23.33;40.80
64753;BME280;61095;52.454;16.948;2023-07-20T21:16:16;100122.84;;;23.26;41.18
64753;BME280;61095;52.454;16.948;2023-07-20T21:21:18;100120.81;;;23.18;40.96
64753;BME280;61095;52.454;16.948;2023-07-20T21:26:18;100122.22;;;23.13;40.99
64753;BME280;61095;52.454;16.948;2023-07-20T21:31:19;100123.78;;;23.05;40.92
64753;BME280;61095;52.454;16.948;2023-07-20T21:36:20;100123.59;;;22.97;41.20
64753;BME280;61095;52.454;16.948;2023-07-20T21:41:21;100129.91;;;22.87;41.49
64753;BME280;61095;52.454;16.948;2023-07-20T21:46:21;100134.97;;;22.80;41.23
64753;BME280;61095;52.454;16.948;2023-07-20T21:51:23;100138.34;;;22.72;41.22
64753;BME280;61095;52.454;16.948;2023-07-20T21:56:23;100146.09;;;22.66;41.17
